sensor_id;sensor_type;location;lat;lon;timestamp;P1;durP1;ratioP1;P2;durP2;ratioP2
69485;SDS011;56677;51.710;5.366;2023-07-30T00:00:31;3.53;;;1.73;;
69485;SDS011;56677;51.710;5.366;2023-07-30T00:02:56;3.97;;;1.73;;
69485;SDS011;56677;51.710;5.366;2023-07-30T00:05:21;5.50;;;1.63;;
69485;SDS011;56677;51.710;5.366;2023-07-30T00:07:47;4.90;;;1.90;;
69485;SDS011;56677;51.710;5.366;2023-07-30T00:10:12;4.65;;;1.92;;
69485;SDS011;56677;51.710;5.366;2023-07-30T00:12:37;3.55;;;1.85;;
69485;SDS011;56677;51.710;5.366;2023-07-30T00:15:02;3.42;;;1.52;;
69485;SDS011;56677;51.710;5.366;2023-07-30T00:17:27;4.20;;;1.80;;
69485;SDS011;56677;51.710;5.366;2023-07-30T00:19:52;4.90;;;2.00;;
69485;SDS011;56677;51.710;5.366;2023-07-30T00:22:17;4.82;;;2.00;;
69485;SDS011;56677;51.710;5.366;2023-07-30T00:24:43;3.05;;;1.60;;
69485;SDS011;56677;51.710;5.366;2023-07-30T00:27:08;3.60;;;2.17;;
69485;SDS011;56677;51.710;5.366;2023-07-30T00:29:33;5.03;;;2.20;;
69485;SDS011;56677;51.710;5.366;2023-07-30T00:31:58;4.07;;;2.00;;
69485;SDS011;56677;51.710;5.366;2023-07-30T00:34:23;3.65;;;1.77;;
69485;SDS011;56677;51.710;5.366;2023-07-30T00:36:48;4.38;;;1.83;;
69485;SDS011;56677;51.710;5.366;2023-07-30T00:39:14;4.43;;;2.10;;
69485;SDS011;56677;51.710;5.366;2023-07-30T00:41:39;4.10;;;1.88;;
69485;SDS011;56677;51.710;5.366;2023-07-30T00:44:04;5.83;;;2.37;;
69485;SDS011;56677;51.710;5.366;2023-07-30T00:46:29;3.20;;;1.63;;
69485;SDS011;56677;51.710;5.366;2023-07-30T00:48:54;4.07;;;1.70;;
69485;SDS011;56677;51.710;5.366;2023-07-30T00:51:19;4.07;;;1.50;;
69485;SDS011;56677;51.710;5.366;2023-07-30T00:53:45;3.40;;;1.20;;
69485;SDS011;56677;51.710;5.366;2023-07-30T00:56:10;3.27;;;1.67;;
69485;SDS011;56677;51.710;5.366;2023-07-30T00:58:35;3.47;;;1.60;;
69485;SDS011;56677;51.710;5.366;2023-07-30T01:01:01;5.53;;;2.03;;
69485;SDS011;56677;51.710;5.366;2023-07-30T01:03:26;3.83;;;1.80;;
69485;SDS011;56677;51.710;5.366;2023-07-30T01:05:51;4.47;;;1.90;;
69485;SDS011;56677;51.710;5.366;2023-07-30T01:08:16;4.93;;;2.00;;
69485;SDS011;56677;51.710;5.366;2023-07-30T01:10:41;5.75;;;2.08;;
69485;SDS011;56677;51.710;5.366;2023-07-30T01:13:07;3.93;;;2.00;;
69485;SDS011;56677;51.710;5.366;2023-07-30T01:15:34;3.88;;;1.65;;
69485;SDS011;56677;51.710;5.366;2023-07-30T01:17:59;4.90;;;2.07;;
69485;SDS011;56677;51.710;5.366;2023-07-30T01:20:24;4.87;;;2.30;;
69485;SDS011;56677;51.710;5.366;2023-07-30T01:22:49;4.60;;;2.08;;
69485;SDS011;56677;51.710;5.366;2023-07-30T01:25:15;4.17;;;2.03;;
69485;SDS011;56677;51.710;5.366;2023-07-30T01:27:41;4.53;;;1.93;;
69485;SDS011;56677;51.710;5.366;2023-07-30T01:30:09;3.55;;;1.77;;
69485;SDS011;56677;51.710;5.366;2023-07-30T01:32:35;4.53;;;1.90;;
69485;SDS011;56677;51.710;5.366;2023-07-30T01:35:01;3.40;;;1.80;;
69485;SDS011;56677;51.710;5.366;2023-07-30T01:37:26;4.97;;;1.93;;
69485;SDS011;56677;51.710;5.366;2023-07-30T01:39:52;4.07;;;2.10;;
69485;SDS011;56677;51.710;5.366;2023-07-30T01:42:18;3.30;;;1.73;;
69485;SDS011;56677;51.710;5.366;2023-07-30T01:44:43;3.47;;;1.83;;
69485;SDS011;56677;51.710;5.366;2023-07-30T01:47:08;4.85;;;1.67;;
69485;SDS011;56677;51.710;5.366;2023-07-30T01:49:33;4.13;;;2.00;;
69485;SDS011;56677;51.710;5.366;2023-07-30T01:51:58;4.05;;;1.70;;
69485;SDS011;56677;51.710;5.366;2023-07-30T01:54:23;5.00;;;1.63;;
69485;SDS011;56677;51.710;5.366;2023-07-30T01:56:49;5.90;;;1.88;;
69485;SDS011;56677;51.710;5.366;2023-07-30T01:59:14;3.73;;;1.60;;
69485;SDS011;56677;51.710;5.366;2023-07-30T02:01:39;4.55;;;1.70;;
69485;SDS011;56677;51.710;5.366;2023-07-30T02:04:05;4.47;;;2.00;;
69485;SDS011;56677;51.710;5.366;2023-07-30T02:06:30;3.75;;;1.70;;
69485;SDS011;56677;51.710;5.366;2023-07-30T02:08:55;4.90;;;2.10;;
69485;SDS011;56677;51.710;5.366;2023-07-30T02:11:20;4.38;;;1.60;;
69485;SDS011;56677;51.710;5.366;2023-07-30T02:13:45;5.40;;;2.10;;
69485;SDS011;56677;51.710;5.366;2023-07-30T02:16:10;6.28;;;2.08;;
69485;SDS011;56677;51.710;5.366;2023-07-30T02:18:36;3.80;;;1.92;;
69485;SDS011;56677;51.710;5.366;2023-07-30T02:21:01;5.37;;;2.40;;
69485;SDS011;56677;51.710;5.366;2023-07-30T02:23:26;3.58;;;2.13;;
69485;SDS011;56677;51.710;5.366;2023-07-30T02:25:51;5.30;;;2.43;;
69485;SDS011;56677;51.710;5.366;2023-07-30T02:28:17;4.47;;;2.17;;
69485;SDS011;56677;51.710;5.366;2023-07-30T02:30:42;3.80;;;1.73;;
69485;SDS011;56677;51.710;5.366;2023-07-30T02:33:07;4.90;;;2.00;;
69485;SDS011;56677;51.710;5.366;2023-07-30T02:35:32;3.73;;;1.90;;
69485;SDS011;56677;51.710;5.366;2023-07-30T02:37:57;5.22;;;1.83;;
69485;SDS011;56677;51.710;5.366;2023-07-30T02:40:22;4.03;;;1.80;;
69485;SDS011;56677;51.710;5.366;2023-07-30T02:42:47;5.73;;;1.97;;
69485;SDS011;56677;51.710;5.366;2023-07-30T02:45:13;3.67;;;1.63;;
69485;SDS011;56677;51.710;5.366;2023-07-30T02:47:38;5.25;;;2.22;;
69485;SDS011;56677;51.710;5.366;2023-07-30T02:50:03;4.57;;;1.77;;
69485;SDS011;56677;51.710;5.366;2023-07-30T02:52:29;5.63;;;2.57;;
69485;SDS011;56677;51.710;5.366;2023-07-30T02:54:54;5.97;;;2.22;;
69485;SDS011;56677;51.710;5.366;2023-07-30T02:57:19;5.72;;;2.22;;
69485;SDS011;56677;51.710;5.366;2023-07-30T02:59:44;4.32;;;2.05;;
69485;SDS011;56677;51.710;5.366;2023-07-30T03:02:09;5.35;;;2.10;;
69485;SDS011;56677;51.710;5.366;2023-07-30T03:04:34;5.00;;;2.20;;
69485;SDS011;56677;51.710;5.366;2023-07-30T03:06:59;4.97;;;2.28;;
69485;SDS011;56677;51.710;5.366;2023-07-30T03:09:25;5.50;;;1.90;;
69485;SDS011;56677;51.710;5.366;2023-07-30T03:11:50;5.60;;;2.00;;
69485;SDS011;56677;51.710;5.366;2023-07-30T03:14:15;5.50;;;1.80;;
69485;SDS011;56677;51.710;5.366;2023-07-30T03:16:40;7.43;;;2.10;;
69485;SDS011;56677;51.710;5.366;2023-07-30T03:19:05;5.80;;;2.13;;
69485;SDS011;56677;51.710;5.366;2023-07-30T03:21:31;3.05;;;1.65;;
69485;SDS011;56677;51.710;5.366;2023-07-30T03:23:56;3.78;;;1.75;;
69485;SDS011;56677;51.710;5.366;2023-07-30T03:26:21;5.13;;;2.17;;
69485;SDS011;56677;51.710;5.366;2023-07-30T03:28:46;6.40;;;2.40;;
69485;SDS011;56677;51.710;5.366;2023-07-30T03:31:11;5.43;;;2.03;;
69485;SDS011;56677;51.710;5.366;2023-07-30T03:33:37;5.03;;;1.90;;
69485;SDS011;56677;51.710;5.366;2023-07-30T03:36:02;4.27;;;2.17;;
69485;SDS011;56677;51.710;5.366;2023-07-30T03:38:27;6.13;;;2.07;;
69485;SDS011;56677;51.710;5.366;2023-07-30T03:40:53;7.87;;;2.10;;
69485;SDS011;56677;51.710;5.366;2023-07-30T03:43:18;4.17;;;2.23;;
69485;SDS011;56677;51.710;5.366;2023-07-30T03:45:43;3.83;;;1.75;;
69485;SDS011;56677;51.710;5.366;2023-07-30T03:48:08;5.85;;;1.95;;
69485;SDS011;56677;51.710;5.366;2023-07-30T03:50:33;3.90;;;1.98;;
69485;SDS011;56677;51.710;5.366;2023-07-30T03:52:58;5.90;;;2.03;;
69485;SDS011;56677;51.710;5.366;2023-07-30T03:55:24;5.70;;;2.05;;
69485;SDS011;56677;51.710;5.366;2023-07-30T03:57:49;6.17;;;2.60;;
69485;SDS011;56677;51.710;5.366;2023-07-30T04:00:14;4.70;;;2.03;;
69485;SDS011;56677;51.710;5.366;2023-07-30T04:02:39;4.07;;;1.90;;
69485;SDS011;56677;51.710;5.366;2023-07-30T04:05:04;4.87;;;2.13;;
69485;SDS011;56677;51.710;5.366;2023-07-30T04:07:29;5.47;;;2.03;;
69485;SDS011;56677;51.710;5.366;2023-07-30T04:09:55;5.00;;;1.88;;
69485;SDS011;56677;51.710;5.366;2023-07-30T04:12:20;3.63;;;1.70;;
69485;SDS011;56677;51.710;5.366;2023-07-30T04:14:47;6.68;;;2.10;;
69485;SDS011;56677;51.710;5.366;2023-07-30T04:17:12;5.32;;;1.90;;
69485;SDS011;56677;51.710;5.366;2023-07-30T04:19:37;4.50;;;1.95;;
69485;SDS011;56677;51.710;5.366;2023-07-30T04:22:02;5.37;;;1.90;;
69485;SDS011;56677;51.710;5.366;2023-07-30T04:24:27;5.10;;;1.77;;
69485;SDS011;56677;51.710;5.366;2023-07-30T04:26:52;4.75;;;1.90;;
69485;SDS011;56677;51.710;5.366;2023-07-30T04:29:17;5.97;;;1.80;;
69485;SDS011;56677;51.710;5.366;2023-07-30T04:31:43;5.70;;;1.80;;
69485;SDS011;56677;51.710;5.366;2023-07-30T04:34:08;6.27;;;1.90;;
69485;SDS011;56677;51.710;5.366;2023-07-30T04:36:33;8.10;;;1.88;;
69485;SDS011;56677;51.710;5.366;2023-07-30T04:38:58;5.40;;;2.25;;
69485;SDS011;56677;51.710;5.366;2023-07-30T04:41:23;4.85;;;2.00;;
69485;SDS011;56677;51.710;5.366;2023-07-30T04:43:48;5.83;;;2.20;;
69485;SDS011;56677;51.710;5.366;2023-07-30T04:46:13;7.03;;;2.20;;
69485;SDS011;56677;51.710;5.366;2023-07-30T04:48:38;4.83;;;1.90;;
69485;SDS011;56677;51.710;5.366;2023-07-30T04:51:04;4.47;;;2.20;;
69485;SDS011;56677;51.710;5.366;2023-07-30T04:53:29;5.67;;;2.10;;
69485;SDS011;56677;51.710;5.366;2023-07-30T04:55:54;5.47;;;1.77;;
69485;SDS011;56677;51.710;5.366;2023-07-30T04:58:20;6.23;;;2.13;;
69485;SDS011;56677;51.710;5.366;2023-07-30T05:00:45;5.93;;;1.98;;
69485;SDS011;56677;51.710;5.366;2023-07-30T05:03:10;5.13;;;2.28;;
69485;SDS011;56677;51.710;5.366;2023-07-30T05:05:35;7.70;;;2.40;;
69485;SDS011;56677;51.710;5.366;2023-07-30T05:08:00;6.80;;;2.67;;
69485;SDS011;56677;51.710;5.366;2023-07-30T05:10:25;8.90;;;2.15;;
69485;SDS011;56677;51.710;5.366;2023-07-30T05:12:52;6.55;;;2.22;;
69485;SDS011;56677;51.710;5.366;2023-07-30T05:15:17;5.88;;;2.28;;
69485;SDS011;56677;51.710;5.366;2023-07-30T05:17:42;7.07;;;2.10;;
69485;SDS011;56677;51.710;5.366;2023-07-30T05:20:07;9.38;;;1.80;;
69485;SDS011;56677;51.710;5.366;2023-07-30T05:22:32;7.07;;;1.90;;
69485;SDS011;56677;51.710;5.366;2023-07-30T05:24:59;6.80;;;2.40;;
69485;SDS011;56677;51.710;5.366;2023-07-30T05:27:28;7.93;;;2.38;;
69485;SDS011;56677;51.710;5.366;2023-07-30T05:29:53;5.53;;;2.22;;
69485;SDS011;56677;51.710;5.366;2023-07-30T05:32:18;6.23;;;1.93;;
69485;SDS011;56677;51.710;5.366;2023-07-30T05:34:43;6.82;;;2.13;;
69485;SDS011;56677;51.710;5.366;2023-07-30T05:37:09;8.07;;;2.30;;
69485;SDS011;56677;51.710;5.366;2023-07-30T05:39:34;6.68;;;2.63;;
69485;SDS011;56677;51.710;5.366;2023-07-30T05:41:59;5.60;;;2.27;;
69485;SDS011;56677;51.710;5.366;2023-07-30T05:44:24;8.00;;;2.70;;
69485;SDS011;56677;51.710;5.366;2023-07-30T05:46:49;9.17;;;2.87;;
69485;SDS011;56677;51.710;5.366;2023-07-30T05:49:14;7.03;;;2.60;;
69485;SDS011;56677;51.710;5.366;2023-07-30T05:51:40;7.72;;;2.72;;
69485;SDS011;56677;51.710;5.366;2023-07-30T05:54:05;5.87;;;2.40;;
69485;SDS011;56677;51.710;5.366;2023-07-30T05:56:30;6.35;;;2.63;;
69485;SDS011;56677;51.710;5.366;2023-07-30T05:58:55;8.05;;;2.53;;
69485;SDS011;56677;51.710;5.366;2023-07-30T06:01:20;6.68;;;2.78;;
69485;SDS011;56677;51.710;5.366;2023-07-30T06:03:45;6.67;;;2.13;;
69485;SDS011;56677;51.710;5.366;2023-07-30T06:06:10;6.28;;;2.38;;
69485;SDS011;56677;51.710;5.366;2023-07-30T06:08:35;7.32;;;2.50;;
69485;SDS011;56677;51.710;5.366;2023-07-30T06:11:02;7.95;;;2.53;;
69485;SDS011;56677;51.710;5.366;2023-07-30T06:13:27;8.33;;;2.90;;
69485;SDS011;56677;51.710;5.366;2023-07-30T06:15:52;8.77;;;2.70;;
69485;SDS011;56677;51.710;5.366;2023-07-30T06:18:17;6.18;;;2.90;;
69485;SDS011;56677;51.710;5.366;2023-07-30T06:20:42;9.80;;;2.45;;
69485;SDS011;56677;51.710;5.366;2023-07-30T06:23:07;7.75;;;2.58;;
69485;SDS011;56677;51.710;5.366;2023-07-30T06:25:32;8.13;;;2.65;;
69485;SDS011;56677;51.710;5.366;2023-07-30T06:27:58;7.53;;;2.90;;
69485;SDS011;56677;51.710;5.366;2023-07-30T06:30:23;8.60;;;2.60;;
69485;SDS011;56677;51.710;5.366;2023-07-30T06:32:48;9.05;;;2.47;;
69485;SDS011;56677;51.710;5.366;2023-07-30T06:35:13;6.25;;;2.35;;
69485;SDS011;56677;51.710;5.366;2023-07-30T06:37:38;6.67;;;2.60;;
69485;SDS011;56677;51.710;5.366;2023-07-30T06:40:03;6.55;;;2.10;;
69485;SDS011;56677;51.710;5.366;2023-07-30T06:42:29;8.13;;;2.72;;
69485;SDS011;56677;51.710;5.366;2023-07-30T06:44:54;7.63;;;2.70;;
69485;SDS011;56677;51.710;5.366;2023-07-30T06:47:19;8.00;;;2.80;;
69485;SDS011;56677;51.710;5.366;2023-07-30T06:49:44;7.70;;;2.45;;
69485;SDS011;56677;51.710;5.366;2023-07-30T06:52:09;8.23;;;2.78;;
69485;SDS011;56677;51.710;5.366;2023-07-30T06:54:34;10.32;;;2.53;;
69485;SDS011;56677;51.710;5.366;2023-07-30T06:56:59;9.35;;;2.53;;
69485;SDS011;56677;51.710;5.366;2023-07-30T06:59:25;8.77;;;2.50;;
69485;SDS011;56677;51.710;5.366;2023-07-30T07:01:50;8.30;;;2.20;;
69485;SDS011;56677;51.710;5.366;2023-07-30T07:04:15;7.18;;;2.40;;
69485;SDS011;56677;51.710;5.366;2023-07-30T07:06:40;8.60;;;2.90;;
69485;SDS011;56677;51.710;5.366;2023-07-30T07:09:05;5.93;;;2.17;;
69485;SDS011;56677;51.710;5.366;2023-07-30T07:11:30;8.65;;;2.20;;
69485;SDS011;56677;51.710;5.366;2023-07-30T07:13:57;7.63;;;3.00;;
69485;SDS011;56677;51.710;5.366;2023-07-30T07:16:22;8.83;;;2.73;;
69485;SDS011;56677;51.710;5.366;2023-07-30T07:18:47;9.82;;;3.10;;
69485;SDS011;56677;51.710;5.366;2023-07-30T07:21:12;8.52;;;2.47;;
69485;SDS011;56677;51.710;5.366;2023-07-30T07:23:37;6.17;;;2.60;;
69485;SDS011;56677;51.710;5.366;2023-07-30T07:26:02;8.48;;;2.10;;
69485;SDS011;56677;51.710;5.366;2023-07-30T07:28:29;7.07;;;2.33;;
69485;SDS011;56677;51.710;5.366;2023-07-30T07:30:54;9.23;;;2.88;;
69485;SDS011;56677;51.710;5.366;2023-07-30T07:33:19;12.90;;;2.90;;
69485;SDS011;56677;51.710;5.366;2023-07-30T07:35:44;9.07;;;2.88;;
69485;SDS011;56677;51.710;5.366;2023-07-30T07:38:09;10.40;;;2.47;;
69485;SDS011;56677;51.710;5.366;2023-07-30T07:40:38;8.90;;;2.80;;
69485;SDS011;56677;51.710;5.366;2023-07-30T07:43:03;6.78;;;2.47;;
69485;SDS011;56677;51.710;5.366;2023-07-30T07:45:28;8.13;;;2.67;;
69485;SDS011;56677;51.710;5.366;2023-07-30T07:47:53;11.50;;;3.30;;
69485;SDS011;56677;51.710;5.366;2023-07-30T07:50:20;7.28;;;2.70;;
69485;SDS011;56677;51.710;5.366;2023-07-30T07:52:45;13.38;;;3.00;;
69485;SDS011;56677;51.710;5.366;2023-07-30T07:55:10;6.88;;;2.28;;
69485;SDS011;56677;51.710;5.366;2023-07-30T07:57:35;8.95;;;3.38;;
69485;SDS011;56677;51.710;5.366;2023-07-30T08:00:00;7.55;;;2.50;;
69485;SDS011;56677;51.710;5.366;2023-07-30T08:02:26;8.37;;;2.70;;
69485;SDS011;56677;51.710;5.366;2023-07-30T08:04:51;7.72;;;3.00;;
69485;SDS011;56677;51.710;5.366;2023-07-30T08:07:16;10.40;;;2.93;;
69485;SDS011;56677;51.710;5.366;2023-07-30T08:09:41;10.48;;;3.10;;
69485;SDS011;56677;51.710;5.366;2023-07-30T08:12:06;7.50;;;3.10;;
69485;SDS011;56677;51.710;5.366;2023-07-30T08:14:31;6.97;;;2.70;;
69485;SDS011;56677;51.710;5.366;2023-07-30T08:16:56;10.90;;;2.90;;
69485;SDS011;56677;51.710;5.366;2023-07-30T08:19:22;7.93;;;2.70;;
69485;SDS011;56677;51.710;5.366;2023-07-30T08:21:47;10.13;;;3.17;;
69485;SDS011;56677;51.710;5.366;2023-07-30T08:24:12;10.45;;;2.60;;
69485;SDS011;56677;51.710;5.366;2023-07-30T08:26:37;7.43;;;3.00;;
69485;SDS011;56677;51.710;5.366;2023-07-30T08:29:02;4.87;;;2.60;;
69485;SDS011;56677;51.710;5.366;2023-07-30T08:31:28;6.32;;;2.42;;
69485;SDS011;56677;51.710;5.366;2023-07-30T08:33:53;7.07;;;2.35;;
69485;SDS011;56677;51.710;5.366;2023-07-30T08:36:18;11.80;;;2.83;;
69485;SDS011;56677;51.710;5.366;2023-07-30T08:38:43;11.83;;;2.70;;
69485;SDS011;56677;51.710;5.366;2023-07-30T08:41:08;8.00;;;2.28;;
69485;SDS011;56677;51.710;5.366;2023-07-30T08:43:34;9.33;;;2.90;;
69485;SDS011;56677;51.710;5.366;2023-07-30T08:45:59;8.35;;;2.30;;
69485;SDS011;56677;51.710;5.366;2023-07-30T08:48:25;12.27;;;3.00;;
69485;SDS011;56677;51.710;5.366;2023-07-30T08:50:50;11.87;;;2.70;;
69485;SDS011;56677;51.710;5.366;2023-07-30T08:53:15;10.20;;;3.28;;
69485;SDS011;56677;51.710;5.366;2023-07-30T08:55:41;11.13;;;3.10;;
69485;SDS011;56677;51.710;5.366;2023-07-30T08:58:06;12.13;;;2.95;;
69485;SDS011;56677;51.710;5.366;2023-07-30T09:00:34;9.93;;;2.70;;
69485;SDS011;56677;51.710;5.366;2023-07-30T09:02:59;7.97;;;2.40;;
69485;SDS011;56677;51.710;5.366;2023-07-30T09:05:25;9.30;;;2.70;;
69485;SDS011;56677;51.710;5.366;2023-07-30T09:07:50;9.70;;;2.70;;
69485;SDS011;56677;51.710;5.366;2023-07-30T09:10:16;9.93;;;2.60;;
69485;SDS011;56677;51.710;5.366;2023-07-30T09:12:41;10.02;;;2.70;;
69485;SDS011;56677;51.710;5.366;2023-07-30T09:15:06;8.43;;;2.77;;
69485;SDS011;56677;51.710;5.366;2023-07-30T09:17:32;10.27;;;2.83;;
69485;SDS011;56677;51.710;5.366;2023-07-30T09:20:01;11.48;;;2.95;;
69485;SDS011;56677;51.710;5.366;2023-07-30T09:22:27;10.05;;;3.10;;
69485;SDS011;56677;51.710;5.366;2023-07-30T09:24:55;10.40;;;2.97;;
69485;SDS011;56677;51.710;5.366;2023-07-30T09:27:21;10.55;;;3.15;;
69485;SDS011;56677;51.710;5.366;2023-07-30T09:29:50;9.82;;;2.50;;
69485;SDS011;56677;51.710;5.366;2023-07-30T09:32:15;10.95;;;3.22;;
69485;SDS011;56677;51.710;5.366;2023-07-30T09:34:40;13.27;;;3.60;;
69485;SDS011;56677;51.710;5.366;2023-07-30T09:37:09;8.07;;;2.50;;
69485;SDS011;56677;51.710;5.366;2023-07-30T09:39:34;11.13;;;3.20;;
69485;SDS011;56677;51.710;5.366;2023-07-30T09:42:02;10.27;;;2.80;;
69485;SDS011;56677;51.710;5.366;2023-07-30T09:44:27;8.90;;;2.53;;
69485;SDS011;56677;51.710;5.366;2023-07-30T09:46:52;10.30;;;2.80;;
69485;SDS011;56677;51.710;5.366;2023-07-30T09:49:17;10.20;;;2.70;;
69485;SDS011;56677;51.710;5.366;2023-07-30T09:51:43;10.23;;;2.50;;
69485;SDS011;56677;51.710;5.366;2023-07-30T09:54:08;9.32;;;2.70;;
69485;SDS011;56677;51.710;5.366;2023-07-30T09:56:37;9.02;;;2.35;;
69485;SDS011;56677;51.710;5.366;2023-07-30T09:59:04;8.25;;;2.63;;
69485;SDS011;56677;51.710;5.366;2023-07-30T10:01:29;7.60;;;2.37;;
69485;SDS011;56677;51.710;5.366;2023-07-30T10:03:56;10.60;;;2.83;;
69485;SDS011;56677;51.710;5.366;2023-07-30T10:06:21;7.93;;;2.58;;
69485;SDS011;56677;51.710;5.366;2023-07-30T10:08:47;5.95;;;2.33;;
69485;SDS011;56677;51.710;5.366;2023-07-30T10:11:13;8.50;;;2.40;;
69485;SDS011;56677;51.710;5.366;2023-07-30T10:13:38;5.73;;;2.47;;
69485;SDS011;56677;51.710;5.366;2023-07-30T10:16:09;6.70;;;2.40;;
69485;SDS011;56677;51.710;5.366;2023-07-30T10:18:40;8.90;;;2.20;;
69485;SDS011;56677;51.710;5.366;2023-07-30T10:21:09;8.45;;;2.55;;
69485;SDS011;56677;51.710;5.366;2023-07-30T10:23:34;6.75;;;2.30;;
69485;SDS011;56677;51.710;5.366;2023-07-30T10:26:01;7.00;;;2.43;;
69485;SDS011;56677;51.710;5.366;2023-07-30T10:28:33;9.75;;;2.58;;
69485;SDS011;56677;51.710;5.366;2023-07-30T10:31:02;6.05;;;2.25;;
69485;SDS011;56677;51.710;5.366;2023-07-30T10:34:10;5.47;;;1.97;;
69485;SDS011;56677;51.710;5.366;2023-07-30T10:36:32;5.70;;;2.40;;
69485;SDS011;56677;51.710;5.366;2023-07-30T10:38:58;7.45;;;1.90;;
69485;SDS011;56677;51.710;5.366;2023-07-30T10:41:26;9.18;;;2.30;;
69485;SDS011;56677;51.710;5.366;2023-07-30T10:43:51;7.28;;;2.20;;
69485;SDS011;56677;51.710;5.366;2023-07-30T10:46:18;6.50;;;2.17;;
69485;SDS011;56677;51.710;5.366;2023-07-30T10:48:44;6.82;;;2.20;;
69485;SDS011;56677;51.710;5.366;2023-07-30T10:51:11;6.13;;;1.63;;
69485;SDS011;56677;51.710;5.366;2023-07-30T10:53:37;7.40;;;2.10;;
69485;SDS011;56677;51.710;5.366;2023-07-30T10:56:02;6.80;;;2.20;;
69485;SDS011;56677;51.710;5.366;2023-07-30T10:58:29;8.55;;;1.90;;
69485;SDS011;56677;51.710;5.366;2023-07-30T11:00:56;7.25;;;2.15;;
69485;SDS011;56677;51.710;5.366;2023-07-30T11:03:23;7.77;;;2.17;;
69485;SDS011;56677;51.710;5.366;2023-07-30T11:05:48;8.77;;;2.28;;
69485;SDS011;56677;51.710;5.366;2023-07-30T11:08:14;8.05;;;2.10;;
69485;SDS011;56677;51.710;5.366;2023-07-30T11:10:43;5.83;;;1.80;;
69485;SDS011;56677;51.710;5.366;2023-07-30T11:13:10;6.07;;;1.98;;
69485;SDS011;56677;51.710;5.366;2023-07-30T11:15:40;5.72;;;1.70;;
69485;SDS011;56677;51.710;5.366;2023-07-30T11:18:05;6.35;;;2.00;;
69485;SDS011;56677;51.710;5.366;2023-07-30T11:20:30;6.20;;;1.83;;
69485;SDS011;56677;51.710;5.366;2023-07-30T11:22:55;7.53;;;1.87;;
69485;SDS011;56677;51.710;5.366;2023-07-30T11:25:20;5.95;;;1.95;;
69485;SDS011;56677;51.710;5.366;2023-07-30T11:27:49;5.97;;;1.60;;
69485;SDS011;56677;51.710;5.366;2023-07-30T11:30:14;6.47;;;1.87;;
69485;SDS011;56677;51.710;5.366;2023-07-30T11:32:41;5.83;;;1.83;;
69485;SDS011;56677;51.710;5.366;2023-07-30T11:35:06;7.30;;;1.98;;
69485;SDS011;56677;51.710;5.366;2023-07-30T11:37:32;7.63;;;1.63;;
69485;SDS011;56677;51.710;5.366;2023-07-30T11:39:57;7.63;;;2.17;;
69485;SDS011;56677;51.710;5.366;2023-07-30T11:42:22;6.60;;;2.00;;
69485;SDS011;56677;51.710;5.366;2023-07-30T11:44:47;5.55;;;2.00;;
69485;SDS011;56677;51.710;5.366;2023-07-30T11:47:13;6.30;;;1.65;;
69485;SDS011;56677;51.710;5.366;2023-07-30T11:49:54;6.78;;;1.75;;
69485;SDS011;56677;51.710;5.366;2023-07-30T11:52:19;7.73;;;2.10;;
69485;SDS011;56677;51.710;5.366;2023-07-30T11:54:44;6.47;;;2.00;;
69485;SDS011;56677;51.710;5.366;2023-07-30T11:57:09;8.00;;;1.42;;
69485;SDS011;56677;51.710;5.366;2023-07-30T11:59:34;7.10;;;1.37;;
69485;SDS011;56677;51.710;5.366;2023-07-30T12:02:01;6.25;;;1.65;;
69485;SDS011;56677;51.710;5.366;2023-07-30T12:04:48;6.85;;;1.40;;
69485;SDS011;56677;51.710;5.366;2023-07-30T12:07:21;3.95;;;1.35;;
69485;SDS011;56677;51.710;5.366;2023-07-30T12:09:46;4.40;;;1.80;;
69485;SDS011;56677;51.710;5.366;2023-07-30T12:12:11;7.82;;;2.22;;
69485;SDS011;56677;51.710;5.366;2023-07-30T12:14:43;5.90;;;2.07;;
69485;SDS011;56677;51.710;5.366;2023-07-30T12:17:09;4.93;;;1.50;;
69485;SDS011;56677;51.710;5.366;2023-07-30T12:19:34;6.87;;;1.63;;
69485;SDS011;56677;51.710;5.366;2023-07-30T12:21:59;8.07;;;1.70;;
69485;SDS011;56677;51.710;5.366;2023-07-30T12:24:24;4.78;;;1.23;;
69485;SDS011;56677;51.710;5.366;2023-07-30T12:26:49;7.63;;;1.60;;
69485;SDS011;56677;51.710;5.366;2023-07-30T12:29:14;3.92;;;1.20;;
69485;SDS011;56677;51.710;5.366;2023-07-30T12:31:41;12.27;;;1.58;;
69485;SDS011;56677;51.710;5.366;2023-07-30T12:34:06;6.80;;;1.73;;
69485;SDS011;56677;51.710;5.366;2023-07-30T12:36:31;4.55;;;1.30;;
69485;SDS011;56677;51.710;5.366;2023-07-30T12:38:56;5.27;;;1.10;;
69485;SDS011;56677;51.710;5.366;2023-07-30T12:41:22;5.72;;;1.30;;
69485;SDS011;56677;51.710;5.366;2023-07-30T12:43:47;6.55;;;1.05;;
69485;SDS011;56677;51.710;5.366;2023-07-30T12:46:12;5.18;;;1.30;;
69485;SDS011;56677;51.710;5.366;2023-07-30T12:48:37;6.88;;;1.60;;
69485;SDS011;56677;51.710;5.366;2023-07-30T12:51:02;4.32;;;1.20;;
69485;SDS011;56677;51.710;5.366;2023-07-30T12:53:28;6.20;;;1.47;;
69485;SDS011;56677;51.710;5.366;2023-07-30T12:55:53;5.80;;;1.40;;
69485;SDS011;56677;51.710;5.366;2023-07-30T12:58:19;3.50;;;1.00;;
69485;SDS011;56677;51.710;5.366;2023-07-30T13:00:44;6.03;;;1.27;;
69485;SDS011;56677;51.710;5.366;2023-07-30T13:03:09;4.32;;;1.45;;
69485;SDS011;56677;51.710;5.366;2023-07-30T13:05:34;5.32;;;1.40;;
69485;SDS011;56677;51.710;5.366;2023-07-30T13:07:59;2.88;;;1.20;;
69485;SDS011;56677;51.710;5.366;2023-07-30T13:10:24;7.53;;;1.45;;
69485;SDS011;56677;51.710;5.366;2023-07-30T13:12:50;9.90;;;1.20;;
69485;SDS011;56677;51.710;5.366;2023-07-30T13:15:15;6.40;;;1.33;;
69485;SDS011;56677;51.710;5.366;2023-07-30T13:17:40;4.33;;;1.00;;
69485;SDS011;56677;51.710;5.366;2023-07-30T13:20:05;3.53;;;1.17;;
69485;SDS011;56677;51.710;5.366;2023-07-30T13:22:31;3.70;;;1.30;;
69485;SDS011;56677;51.710;5.366;2023-07-30T13:24:56;5.38;;;1.10;;
69485;SDS011;56677;51.710;5.366;2023-07-30T13:27:21;4.68;;;1.15;;
69485;SDS011;56677;51.710;5.366;2023-07-30T13:29:46;5.38;;;1.00;;
69485;SDS011;56677;51.710;5.366;2023-07-30T13:32:11;3.93;;;0.97;;
69485;SDS011;56677;51.710;5.366;2023-07-30T13:34:36;3.93;;;1.03;;
69485;SDS011;56677;51.710;5.366;2023-07-30T13:37:01;4.00;;;0.90;;
69485;SDS011;56677;51.710;5.366;2023-07-30T13:39:27;6.00;;;1.40;;
69485;SDS011;56677;51.710;5.366;2023-07-30T13:41:52;5.00;;;1.13;;
69485;SDS011;56677;51.710;5.366;2023-07-30T13:44:17;4.25;;;1.23;;
69485;SDS011;56677;51.710;5.366;2023-07-30T13:46:42;5.13;;;1.35;;
69485;SDS011;56677;51.710;5.366;2023-07-30T13:49:07;4.67;;;1.20;;
69485;SDS011;56677;51.710;5.366;2023-07-30T13:51:32;5.33;;;1.10;;
69485;SDS011;56677;51.710;5.366;2023-07-30T13:54:01;7.43;;;1.63;;
69485;SDS011;56677;51.710;5.366;2023-07-30T13:56:27;4.82;;;1.25;;
69485;SDS011;56677;51.710;5.366;2023-07-30T13:58:52;6.00;;;1.27;;
69485;SDS011;56677;51.710;5.366;2023-07-30T14:01:17;3.75;;;1.30;;
69485;SDS011;56677;51.710;5.366;2023-07-30T14:03:43;5.55;;;1.70;;
69485;SDS011;56677;51.710;5.366;2023-07-30T14:06:08;5.35;;;1.30;;
69485;SDS011;56677;51.710;5.366;2023-07-30T14:08:33;3.75;;;1.27;;
69485;SDS011;56677;51.710;5.366;2023-07-30T14:10:58;4.70;;;1.40;;
69485;SDS011;56677;51.710;5.366;2023-07-30T14:13:23;5.72;;;1.58;;
69485;SDS011;56677;51.710;5.366;2023-07-30T14:15:48;4.53;;;1.40;;
69485;SDS011;56677;51.710;5.366;2023-07-30T14:18:13;4.82;;;1.50;;
69485;SDS011;56677;51.710;5.366;2023-07-30T14:20:39;6.63;;;1.60;;
69485;SDS011;56677;51.710;5.366;2023-07-30T14:23:04;5.57;;;1.30;;
69485;SDS011;56677;51.710;5.366;2023-07-30T14:25:29;4.53;;;1.40;;
69485;SDS011;56677;51.710;5.366;2023-07-30T14:27:54;6.57;;;1.50;;
69485;SDS011;56677;51.710;5.366;2023-07-30T14:30:19;6.22;;;1.65;;
69485;SDS011;56677;51.710;5.366;2023-07-30T14:32:44;5.90;;;1.30;;
69485;SDS011;56677;51.710;5.366;2023-07-30T14:35:10;7.60;;;2.03;;